Terminal Aerodrome Forecast
Issued by NWS Cleveland, OH

Home | Current Version | Previous Version | Graphics & Text | Print | Product List | Glossary On
Versions: 1 2 3 4 5 6 7 8 9 10 11 12 13 14 15 16 17
000
FTUS41 KCLE 271000 AAC
TAFYNG
TAF AMD
KYNG 271036Z 2711/2806 30004KT P6SM SCT008 BKN035
     FM271230 34005KT P6SM BKN008 OVC015
     FM271500 34006KT P6SM BKN015
     FM271900 35008KT P6SM SCT030
     FM280000 02005KT P6SM SCT250=

USA.gov is the U.S. government's official web portal to all federal, state and local government web resources and services.